createdAt,value
2019-05-30T00:01:19.695Z,14.55
2019-05-30T00:04:22.953Z,14.80
2019-05-30T00:07:26.171Z,14.72
2019-05-30T00:10:29.614Z,14.62
2019-05-30T00:13:32.655Z,14.59
2019-05-30T00:16:37.507Z,14.60
2019-05-30T00:19:40.883Z,15.01
2019-05-30T00:22:43.820Z,14.99
2019-05-30T00:25:46.758Z,14.84
2019-05-30T00:28:50.113Z,14.87
2019-05-30T00:31:53.145Z,15.16
2019-05-30T00:34:56.079Z,15.06
2019-05-30T00:37:59.713Z,15.23
2019-05-30T00:41:04.102Z,15.27
2019-05-30T00:44:07.264Z,15.41
2019-05-30T00:47:10.554Z,15.25
2019-05-30T00:50:13.870Z,15.53
2019-05-30T00:53:17.149Z,15.34
2019-05-30T00:56:21.763Z,15.32
2019-05-30T00:59:24.688Z,15.33
2019-05-30T01:02:27.980Z,15.36
2019-05-30T01:05:31.158Z,15.20
2019-05-30T01:08:34.440Z,15.11
2019-05-30T01:11:37.693Z,15.17
2019-05-30T01:14:40.610Z,15.21
2019-05-30T01:17:43.536Z,15.26
2019-05-30T01:20:46.462Z,15.58
2019-05-30T01:23:49.413Z,15.57
2019-05-30T01:26:52.603Z,15.30
2019-05-30T01:29:55.847Z,15.44
2019-05-30T01:32:59.665Z,15.11
2019-05-30T01:36:03.682Z,15.32
2019-05-30T01:39:08.014Z,15.26
2019-05-30T01:42:11.475Z,15.46
2019-05-30T01:45:16.203Z,15.31
2019-05-30T01:48:19.124Z,15.15
2019-05-30T01:51:22.375Z,15.25
2019-05-30T01:54:25.627Z,15.07
2019-05-30T01:57:28.581Z,15.20
2019-05-30T02:00:41.131Z,15.06
2019-05-30T02:03:45.095Z,15.01
2019-05-30T02:06:48.606Z,15.17
2019-05-30T02:09:52.114Z,15.34
2019-05-30T02:12:55.383Z,15.18
2019-05-30T02:15:59.471Z,15.43
2019-05-30T02:19:03.699Z,15.19
2019-05-30T02:22:07.637Z,15.12
2019-05-30T02:25:11.553Z,15.06
2019-05-30T02:28:14.883Z,15.11
2019-05-30T02:31:37.269Z,15.22
2019-05-30T02:34:23.654Z,15.28
2019-05-30T02:37:26.967Z,15.28
2019-05-30T02:40:30.003Z,15.08
2019-05-30T02:43:33.111Z,15.16
2019-05-30T02:46:36.399Z,15.19
2019-05-30T02:49:39.600Z,15.28
2019-05-30T02:52:42.912Z,15.20
2019-05-30T02:55:46.276Z,15.30
2019-05-30T02:58:49.240Z,15.33
2019-05-30T03:02:00.698Z,14.93
2019-05-30T03:04:57.291Z,15.29
2019-05-30T03:08:03.977Z,15.21
2019-05-30T03:11:09.926Z,15.11
2019-05-30T03:14:19.296Z,15.36
2019-05-30T03:17:19.167Z,15.06
2019-05-30T03:20:23.530Z,15.23
2019-05-30T03:23:27.309Z,15.27
2019-05-30T03:26:30.523Z,15.18
2019-05-30T03:29:33.837Z,15.16
2019-05-30T03:35:44.132Z,15.29
2019-05-30T03:38:47.160Z,15.22
2019-05-30T03:41:50.460Z,15.23
2019-05-30T03:44:53.681Z,15.30
2019-05-30T03:48:04.116Z,15.29
2019-05-30T03:51:11.239Z,15.24
2019-05-30T03:54:16.748Z,15.10
2019-05-30T03:57:29.261Z,15.20
2019-05-30T04:00:42.618Z,15.22
2019-05-30T04:04:08.981Z,15.16
2019-05-30T04:07:19.616Z,15.18
2019-05-30T04:10:28.107Z,15.09
2019-05-30T04:13:45.125Z,15.10
2019-05-30T04:16:48.453Z,15.14
2019-05-30T04:19:51.493Z,15.12
2019-05-30T04:22:54.725Z,15.21
2019-05-30T04:26:00.608Z,15.06
2019-05-30T04:29:03.558Z,15.23
2019-05-30T04:32:08.282Z,15.24
2019-05-30T04:35:12.550Z,15.15
2019-05-30T04:38:17.164Z,15.19
2019-05-30T04:41:21.991Z,15.02
2019-05-30T04:44:24.940Z,15.03
2019-05-30T04:47:28.242Z,14.95
2019-05-30T04:50:31.158Z,15.11
2019-05-30T04:53:34.091Z,15.00
2019-05-30T04:56:38.655Z,15.06
2019-05-30T04:59:41.563Z,15.14
2019-05-30T05:02:44.496Z,15.21
2019-05-30T05:05:47.789Z,15.21
2019-05-30T05:08:50.705Z,15.37
2019-05-30T05:11:54.309Z,15.24
2019-05-30T05:14:57.212Z,15.28
2019-05-30T05:18:00.141Z,15.28
2019-05-30T05:21:03.144Z,15.37
2019-05-30T05:24:06.071Z,15.15
2019-05-30T05:27:10.120Z,15.25
2019-05-30T05:30:14.286Z,15.25
2019-05-30T05:33:18.501Z,15.35
2019-05-30T05:36:23.068Z,15.32
2019-05-30T05:39:26.127Z,15.21
2019-05-30T05:42:30.276Z,15.22
2019-05-30T05:45:33.642Z,15.27
2019-05-30T05:48:36.918Z,15.38
2019-05-30T05:51:40.658Z,15.56
2019-05-30T05:54:44.149Z,15.56
2019-05-30T05:57:47.124Z,15.48
2019-05-30T06:00:51.092Z,15.66
2019-05-30T06:03:54.125Z,15.51
2019-05-30T06:06:57.036Z,15.51
2019-05-30T06:09:59.982Z,15.62
2019-05-30T06:13:03.609Z,15.59
2019-05-30T06:16:06.794Z,15.59
2019-05-30T06:19:10.404Z,15.73
2019-05-30T06:22:13.346Z,15.73
2019-05-30T06:25:19.006Z,15.91
2019-05-30T06:28:22.338Z,15.88
2019-05-30T06:31:26.636Z,15.88
2019-05-30T06:34:38.911Z,15.85
2019-05-30T06:37:35.079Z,15.97
2019-05-30T06:40:38.426Z,15.98
2019-05-30T06:43:41.379Z,15.89
2019-05-30T06:46:45.020Z,15.80
2019-05-30T06:49:48.269Z,15.78
2019-05-30T06:52:51.532Z,15.79
2019-05-30T06:55:54.530Z,15.84
2019-05-30T06:58:57.494Z,15.69
2019-05-30T07:02:00.770Z,15.80
2019-05-30T07:05:05.859Z,15.95
2019-05-30T07:08:09.176Z,15.96
2019-05-30T07:11:12.118Z,15.97
2019-05-30T07:14:15.366Z,16.03
2019-05-30T07:17:18.417Z,15.98
2019-05-30T07:20:23.259Z,16.11
2019-05-30T07:23:27.869Z,16.24
2019-05-30T07:26:31.919Z,16.20
2019-05-30T07:29:34.909Z,16.17
2019-05-30T07:32:38.452Z,16.04
2019-05-30T07:35:41.383Z,16.16
2019-05-30T07:38:46.127Z,16.21
2019-05-30T07:42:05.288Z,16.14
2019-05-30T07:44:53.875Z,16.13
2019-05-30T07:47:56.816Z,16.19
2019-05-30T07:50:59.744Z,16.33
2019-05-30T07:54:02.881Z,16.24
2019-05-30T07:57:06.557Z,16.30
2019-05-30T08:00:10.809Z,16.42
2019-05-30T08:03:13.779Z,16.18
2019-05-30T08:06:16.997Z,16.23
2019-05-30T08:09:19.912Z,16.16
2019-05-30T08:12:22.847Z,16.22
2019-05-30T08:15:27.312Z,16.08
2019-05-30T08:18:31.634Z,16.37
2019-05-30T08:21:36.297Z,16.23
2019-05-30T08:24:39.410Z,16.27
2019-05-30T08:27:43.322Z,16.15
2019-05-30T08:30:46.248Z,16.15
2019-05-30T08:33:49.152Z,16.37
2019-05-30T08:36:52.838Z,16.76
2019-05-30T08:39:56.000Z,16.60
2019-05-30T08:42:58.920Z,16.50
2019-05-30T08:46:02.204Z,16.55
2019-05-30T08:49:05.432Z,16.63
2019-05-30T08:52:09.014Z,16.73
2019-05-30T08:55:14.733Z,16.67
2019-05-30T08:58:17.956Z,16.56
2019-05-30T09:01:20.962Z,16.58
2019-05-30T09:04:24.563Z,16.64
2019-05-30T09:07:31.357Z,16.55
2019-05-30T09:10:32.974Z,16.73
2019-05-30T09:13:35.979Z,17.07
2019-05-30T09:16:40.146Z,17.10
2019-05-30T09:19:43.297Z,17.12
2019-05-30T09:22:47.336Z,16.95
2019-05-30T09:25:50.436Z,17.03
2019-05-30T09:28:53.677Z,17.30
2019-05-30T09:31:57.497Z,17.12
2019-05-30T09:35:00.708Z,17.13
2019-05-30T09:38:03.835Z,17.25
2019-05-30T09:41:08.312Z,17.06
2019-05-30T09:44:11.613Z,17.14
2019-05-30T09:47:14.546Z,17.25
2019-05-30T09:50:19.282Z,17.27
2019-05-30T09:53:22.352Z,17.22
2019-05-30T09:56:26.376Z,16.95
2019-05-30T09:59:29.877Z,16.97
2019-05-30T10:02:32.807Z,16.98
2019-05-30T10:05:35.709Z,17.03
2019-05-30T10:08:39.656Z,17.10
2019-05-30T10:11:44.471Z,17.34
2019-05-30T10:14:48.648Z,17.47
2019-05-30T10:17:54.516Z,17.58
2019-05-30T10:20:57.732Z,18.12
2019-05-30T10:24:00.675Z,18.15
2019-05-30T10:27:03.610Z,18.30
2019-05-30T10:30:08.386Z,18.09
2019-05-30T10:33:13.136Z,19.00
2019-05-30T10:36:19.841Z,18.38
2019-05-30T10:39:21.779Z,18.37
2019-05-30T10:42:24.719Z,18.01
2019-05-30T10:45:27.740Z,17.80
2019-05-30T10:48:31.019Z,17.69
2019-05-30T10:51:33.940Z,17.66
2019-05-30T10:54:36.913Z,17.66
2019-05-30T10:57:40.429Z,17.74
2019-05-30T11:00:51.532Z,17.60
2019-05-30T11:03:57.004Z,17.70
2019-05-30T11:07:22.427Z,17.69
2019-05-30T11:10:37.934Z,17.67
2019-05-30T11:13:41.208Z,17.71
2019-05-30T11:16:44.134Z,17.58
2019-05-30T11:19:47.634Z,17.56
2019-05-30T11:22:52.943Z,17.62
2019-05-30T11:25:56.712Z,17.65
2019-05-30T11:28:59.995Z,17.51
2019-05-30T11:32:03.593Z,17.48
2019-05-30T11:35:06.736Z,17.60
2019-05-30T11:38:09.636Z,17.71
2019-05-30T11:41:13.176Z,17.68
2019-05-30T11:44:16.459Z,17.79
2019-05-30T11:47:19.370Z,17.73
2019-05-30T11:50:23.257Z,17.83
2019-05-30T11:53:26.566Z,17.66
2019-05-30T11:56:29.761Z,17.77
2019-05-30T11:59:33.013Z,17.76
2019-05-30T12:02:35.939Z,17.73
2019-05-30T12:05:38.883Z,17.73
2019-05-30T12:08:41.895Z,17.84
2019-05-30T12:11:45.444Z,17.96
2019-05-30T12:14:48.389Z,18.00
2019-05-30T12:17:51.308Z,18.09
2019-05-30T12:20:55.661Z,18.17
2019-05-30T12:24:00.193Z,18.34
2019-05-30T12:27:04.007Z,18.32
2019-05-30T12:30:08.798Z,18.45
2019-05-30T12:33:11.710Z,18.13
2019-05-30T12:36:14.647Z,17.99
2019-05-30T12:39:17.544Z,17.96
2019-05-30T12:42:21.128Z,17.91
2019-05-30T12:45:24.847Z,17.95
2019-05-30T12:48:27.790Z,17.85
2019-05-30T12:51:30.710Z,17.87
2019-05-30T12:54:33.640Z,17.85
2019-05-30T12:57:36.707Z,17.82
2019-05-30T13:00:40.420Z,17.70
2019-05-30T13:03:43.788Z,17.73
2019-05-30T13:06:46.723Z,17.80
2019-05-30T13:09:49.653Z,17.83
2019-05-30T13:12:52.906Z,17.80
2019-05-30T13:15:56.626Z,17.71
2019-05-30T13:19:00.086Z,17.75
2019-05-30T13:22:03.679Z,17.70
2019-05-30T13:25:07.899Z,17.75
2019-05-30T13:28:11.280Z,17.71
2019-05-30T13:31:14.255Z,17.74
2019-05-30T13:34:17.284Z,17.84
2019-05-30T13:37:20.943Z,17.82
2019-05-30T13:40:25.680Z,18.67
2019-05-30T13:43:29.247Z,19.78
2019-05-30T13:46:32.165Z,19.51
2019-05-30T13:49:35.106Z,19.07
2019-05-30T13:52:38.258Z,19.20
2019-05-30T13:55:41.629Z,18.65
2019-05-30T13:58:45.420Z,19.20
2019-05-30T14:01:49.061Z,19.53
2019-05-30T14:04:52.360Z,19.06
2019-05-30T14:07:55.662Z,18.50
2019-05-30T14:10:58.571Z,18.23
2019-05-30T14:14:02.715Z,17.94
2019-05-30T14:17:10.382Z,17.90
2019-05-30T14:20:14.146Z,17.79
2019-05-30T14:23:17.328Z,17.83
2019-05-30T14:26:20.233Z,17.78
2019-05-30T14:29:23.544Z,17.77
2019-05-30T14:32:26.464Z,17.67
2019-05-30T14:35:29.399Z,17.80
2019-05-30T14:38:32.726Z,17.83
2019-05-30T14:41:35.651Z,17.80
2019-05-30T14:44:38.956Z,17.85
2019-05-30T14:47:42.289Z,17.87
2019-05-30T14:50:45.220Z,17.74
2019-05-30T14:53:48.602Z,17.88
2019-05-30T14:56:52.235Z,17.88
2019-05-30T14:59:56.705Z,18.01
2019-05-30T15:02:59.637Z,17.95
2019-05-30T15:06:02.610Z,18.09
2019-05-30T15:09:18.940Z,18.02
2019-05-30T15:12:12.481Z,18.32
2019-05-30T15:15:18.568Z,18.30
2019-05-30T15:18:22.133Z,18.28
2019-05-30T15:21:25.052Z,18.16
2019-05-30T15:24:28.571Z,18.27
2019-05-30T15:27:31.489Z,18.16
2019-05-30T15:30:34.449Z,18.27
2019-05-30T15:33:37.656Z,18.31
2019-05-30T15:36:40.576Z,18.26
2019-05-30T15:39:44.154Z,18.26
2019-05-30T15:42:47.415Z,18.18
2019-05-30T15:45:50.368Z,18.23
2019-05-30T15:48:53.303Z,18.15
2019-05-30T15:51:56.233Z,18.32
2019-05-30T15:54:59.180Z,18.29
2019-05-30T15:58:02.482Z,18.31
2019-05-30T16:01:05.484Z,18.48
2019-05-30T16:04:10.221Z,18.52
2019-05-30T16:07:13.164Z,18.62
2019-05-30T16:10:16.981Z,18.78
2019-05-30T16:13:21.570Z,18.84
2019-05-30T16:16:39.002Z,18.88
2019-05-30T16:19:30.089Z,18.70
2019-05-30T16:22:33.605Z,18.79
2019-05-30T16:25:37.288Z,18.60
2019-05-30T16:28:41.564Z,18.65
2019-05-30T16:31:44.792Z,18.66
2019-05-30T16:34:47.985Z,18.76
2019-05-30T16:37:50.945Z,18.90
2019-05-30T16:40:54.156Z,18.77
2019-05-30T16:43:57.085Z,18.69
2019-05-30T16:47:00.036Z,18.62
2019-05-30T16:50:04.468Z,18.56
2019-05-30T16:53:07.669Z,18.76
2019-05-30T16:56:10.890Z,18.67
2019-05-30T16:59:14.497Z,18.61
2019-05-30T17:02:18.754Z,18.67
2019-05-30T17:05:21.791Z,18.67
2019-05-30T17:08:24.752Z,18.62
2019-05-30T17:11:27.739Z,18.58
2019-05-30T17:14:31.161Z,18.61
2019-05-30T17:17:34.385Z,18.60
2019-05-30T17:20:37.309Z,18.63
2019-05-30T17:23:41.027Z,18.63
2019-05-30T17:26:44.301Z,18.65
2019-05-30T17:29:47.596Z,18.66
2019-05-30T17:32:50.821Z,18.60
2019-05-30T17:35:53.746Z,18.58
2019-05-30T17:38:57.043Z,18.65
2019-05-30T17:42:00.754Z,18.56
2019-05-30T17:45:06.155Z,18.59
2019-05-30T17:48:16.415Z,18.61
2019-05-30T17:51:14.310Z,18.51
2019-05-30T17:54:18.142Z,18.55
2019-05-30T17:57:22.009Z,18.59
2019-05-30T18:00:26.429Z,18.61
2019-05-30T18:03:30.634Z,18.50
2019-05-30T18:06:34.241Z,18.46
2019-05-30T18:09:37.482Z,18.46
2019-05-30T18:12:40.803Z,18.53
2019-05-30T18:15:44.359Z,18.47
2019-05-30T18:18:47.321Z,18.44
2019-05-30T18:21:50.249Z,18.45
2019-05-30T18:24:53.969Z,18.43
2019-05-30T18:27:56.950Z,18.47
2019-05-30T18:30:59.865Z,18.46
2019-05-30T18:34:02.932Z,18.50
2019-05-30T18:37:06.153Z,18.47
2019-05-30T18:40:10.513Z,18.44
2019-05-30T18:43:13.491Z,18.46
2019-05-30T18:46:16.826Z,18.45
2019-05-30T18:49:20.404Z,18.42
2019-05-30T18:52:24.163Z,18.41
2019-05-30T18:55:27.163Z,18.39
2019-05-30T18:58:31.187Z,18.38
2019-05-30T19:01:34.642Z,18.36
2019-05-30T19:04:38.392Z,18.37
2019-05-30T19:07:41.405Z,18.36
2019-05-30T19:10:44.673Z,18.38
2019-05-30T19:13:47.638Z,18.38
2019-05-30T19:16:50.984Z,18.39
2019-05-30T19:19:53.945Z,18.40
2019-05-30T19:22:56.861Z,18.35
2019-05-30T19:26:00.956Z,18.36
2019-05-30T19:29:04.864Z,18.36
2019-05-30T19:32:08.160Z,18.41
2019-05-30T19:35:11.714Z,18.41
2019-05-30T19:38:15.666Z,18.32
2019-05-30T19:41:18.989Z,18.24
2019-05-30T19:44:22.781Z,18.24
2019-05-30T19:47:26.066Z,18.27
2019-05-30T19:50:30.363Z,18.27
2019-05-30T19:53:34.716Z,18.29
2019-05-30T19:56:40.820Z,18.27
2019-05-30T19:59:42.772Z,18.30
2019-05-30T20:02:46.210Z,18.26
2019-05-30T20:05:49.431Z,18.25
2019-05-30T20:08:55.649Z,18.19
2019-05-30T20:12:03.723Z,18.23
2019-05-30T20:15:05.164Z,18.12
2019-05-30T20:18:08.209Z,18.10
2019-05-30T20:21:11.122Z,18.09
2019-05-30T20:24:14.706Z,18.05
2019-05-30T20:27:18.059Z,18.01
2019-05-30T20:30:22.500Z,18.12
2019-05-30T20:33:25.859Z,18.20
2019-05-30T20:36:29.163Z,18.04
2019-05-30T20:39:32.746Z,18.12
2019-05-30T20:42:36.798Z,18.05
2019-05-30T20:45:45.697Z,18.00
2019-05-30T20:48:46.032Z,18.05
2019-05-30T20:51:49.635Z,18.02
2019-05-30T20:54:52.923Z,17.93
2019-05-30T20:57:55.872Z,18.03
2019-05-30T21:00:59.100Z,17.84
2019-05-30T21:04:02.079Z,17.72
2019-05-30T21:07:05.017Z,17.87
2019-05-30T21:10:08.678Z,17.72
2019-05-30T21:13:11.971Z,17.78
2019-05-30T21:16:17.283Z,17.73
2019-05-30T21:19:20.339Z,17.63
2019-05-30T21:22:23.850Z,17.66
2019-05-30T21:25:27.177Z,17.65
2019-05-30T21:28:30.459Z,17.61
2019-05-30T21:31:33.455Z,17.63
2019-05-30T21:34:37.618Z,17.49
2019-05-30T21:37:41.819Z,17.53
2019-05-30T21:40:46.451Z,17.49
2019-05-30T21:43:49.597Z,17.33
2019-05-30T21:46:52.865Z,17.35
2019-05-30T21:49:56.400Z,17.36
2019-05-30T21:52:59.635Z,17.46
2019-05-30T21:56:02.920Z,17.45
2019-05-30T21:59:06.140Z,17.22
2019-05-30T22:02:09.659Z,17.27
2019-05-30T22:05:12.817Z,17.29
2019-05-30T22:08:16.218Z,17.30
2019-05-30T22:11:19.951Z,17.19
2019-05-30T22:14:24.402Z,17.15
2019-05-30T22:17:27.317Z,17.11
2019-05-30T22:20:30.243Z,17.16
2019-05-30T22:23:33.348Z,17.19
2019-05-30T22:26:36.531Z,17.22
2019-05-30T22:29:40.481Z,17.37
2019-05-30T22:32:44.572Z,17.37
2019-05-30T22:35:48.836Z,17.35
2019-05-30T22:38:53.160Z,17.41
2019-05-30T22:41:56.525Z,17.43
2019-05-30T22:44:59.884Z,17.48
2019-05-30T22:48:03.064Z,17.48
2019-05-30T22:51:05.992Z,17.46
2019-05-30T22:54:09.599Z,17.47
2019-05-30T22:57:12.863Z,17.61
2019-05-30T23:00:15.862Z,17.49
2019-05-30T23:03:18.834Z,17.56
2019-05-30T23:06:21.782Z,17.60
2019-05-30T23:09:24.695Z,17.66
2019-05-30T23:12:27.695Z,17.61
2019-05-30T23:15:30.668Z,17.62
2019-05-30T23:18:33.653Z,17.79
2019-05-30T23:21:37.251Z,17.70
2019-05-30T23:24:40.166Z,17.78
2019-05-30T23:27:43.422Z,17.79
2019-05-30T23:30:47.793Z,17.73
2019-05-30T23:38:20.887Z,17.81
2019-05-30T23:41:23.923Z,17.91
2019-05-30T23:44:27.197Z,17.78
2019-05-30T23:47:30.520Z,17.87
2019-05-30T23:50:33.540Z,17.88
2019-05-30T23:53:38.619Z,17.83
2019-05-30T23:56:42.909Z,17.81
2019-05-30T23:59:46.161Z,17.78
